createdAt,value
2018-09-21T00:03:23.152Z,19.00
2018-09-21T00:08:26.475Z,18.80
2018-09-21T00:13:29.773Z,18.80
2018-09-21T00:18:33.165Z,18.80
2018-09-21T00:23:38.121Z,18.80
2018-09-21T00:28:41.742Z,18.80
2018-09-21T00:33:45.248Z,18.80
2018-09-21T00:38:50.082Z,18.80
2018-09-21T00:43:53.450Z,18.70
2018-09-21T00:48:57.172Z,18.70
2018-09-21T00:54:00.735Z,18.60
2018-09-21T00:59:04.302Z,18.60
2018-09-21T01:04:07.774Z,18.50
2018-09-21T01:09:12.142Z,18.40
2018-09-21T01:14:15.473Z,18.30
2018-09-21T01:19:19.166Z,18.20
2018-09-21T01:24:22.521Z,18.20
2018-09-21T01:29:25.952Z,18.10
2018-09-21T01:34:30.056Z,17.90
2018-09-21T01:39:33.527Z,17.80
2018-09-21T01:44:37.185Z,17.80
2018-09-21T01:49:40.674Z,17.70
2018-09-21T01:54:44.216Z,17.60
2018-09-21T01:59:47.840Z,17.70
2018-09-21T02:04:51.083Z,17.70
2018-09-21T02:09:54.551Z,17.50
2018-09-21T02:14:57.862Z,17.40
2018-09-21T02:20:02.354Z,17.30
2018-09-21T02:25:05.646Z,17.40
2018-09-21T02:30:08.943Z,17.30
2018-09-21T02:35:12.201Z,17.30
2018-09-21T02:40:15.610Z,17.20
2018-09-21T02:45:18.880Z,17.20
2018-09-21T02:50:22.920Z,17.00
2018-09-21T02:55:28.436Z,17.10
2018-09-21T03:06:22.648Z,17.00
2018-09-21T03:11:30.587Z,17.10
2018-09-21T03:16:35.664Z,17.20
2018-09-21T03:21:38.996Z,17.20
2018-09-21T03:26:42.324Z,17.10
2018-09-21T03:31:45.614Z,17.20
2018-09-21T03:36:48.934Z,17.20
2018-09-21T03:41:52.328Z,17.20
2018-09-21T03:46:55.654Z,17.10
2018-09-21T03:51:59.033Z,16.90
2018-09-21T03:57:02.591Z,16.80
2018-09-21T04:02:06.093Z,16.80
2018-09-21T04:07:09.690Z,16.70
2018-09-21T04:12:13.196Z,16.60
2018-09-21T04:17:16.770Z,16.50
2018-09-21T04:22:20.275Z,16.60
2018-09-21T04:27:26.175Z,16.50
2018-09-21T04:32:29.839Z,16.50
2018-09-21T04:37:33.433Z,16.40
2018-09-21T04:42:37.050Z,16.40
2018-09-21T04:47:40.827Z,16.20
2018-09-21T04:52:44.441Z,16.20
2018-09-21T04:57:48.069Z,16.30
2018-09-21T05:02:51.715Z,16.40
2018-09-21T05:07:55.419Z,16.40
2018-09-21T05:12:59.045Z,16.40
2018-09-21T05:18:02.827Z,16.40
2018-09-21T05:23:06.491Z,16.40
2018-09-21T05:28:10.096Z,16.30
2018-09-21T05:33:13.873Z,16.30
2018-09-21T05:38:17.599Z,16.50
2018-09-21T05:43:21.313Z,16.50
2018-09-21T05:48:25.499Z,16.60
2018-09-21T05:53:29.001Z,16.70
2018-09-21T05:58:32.581Z,16.80
2018-09-21T06:03:36.235Z,17.00
2018-09-21T06:08:52.453Z,17.10
2018-09-21T06:13:57.585Z,17.40
2018-09-21T06:19:09.702Z,17.50
2018-09-21T06:24:13.786Z,17.80
2018-09-21T06:29:17.904Z,18.30
2018-09-21T06:34:27.778Z,18.70
2018-09-21T06:39:31.191Z,19.20
2018-09-21T06:44:34.484Z,19.80
2018-09-21T06:49:37.815Z,20.40
2018-09-21T06:54:41.247Z,20.80
2018-09-21T06:59:44.635Z,21.20
2018-09-21T07:04:49.230Z,21.60
2018-09-21T07:09:57.929Z,21.90
2018-09-21T07:15:01.331Z,22.20
2018-09-21T07:20:04.734Z,22.70
2018-09-21T07:25:08.181Z,23.20
2018-09-21T07:30:11.556Z,23.70
2018-09-21T07:35:14.953Z,24.20
2018-09-21T07:40:18.432Z,24.60
2018-09-21T07:45:21.861Z,24.60
2018-09-21T07:50:25.360Z,24.60
2018-09-21T07:55:30.143Z,24.60
2018-09-21T08:00:33.869Z,24.60
2018-09-21T08:05:37.132Z,24.60
2018-09-21T08:10:40.656Z,24.50
2018-09-21T08:15:44.118Z,24.60
2018-09-21T08:20:47.480Z,24.90
2018-09-21T08:25:51.884Z,25.20
2018-09-21T08:30:56.771Z,25.40
2018-09-21T08:36:00.029Z,25.40
2018-09-21T08:41:03.421Z,25.30
2018-09-21T08:46:06.854Z,25.40
2018-09-21T08:51:10.351Z,25.50
2018-09-21T08:56:13.720Z,25.60
2018-09-21T09:01:17.036Z,25.60
2018-09-21T09:06:20.553Z,25.80
2018-09-21T09:11:23.996Z,25.80
2018-09-21T09:16:27.273Z,25.60
2018-09-21T09:21:30.765Z,25.50
2018-09-21T09:26:34.104Z,25.60
2018-09-21T09:31:37.489Z,25.60
2018-09-21T09:36:41.104Z,25.40
2018-09-21T09:41:44.403Z,25.30
2018-09-21T09:46:47.792Z,25.30
2018-09-21T09:51:51.246Z,25.20
2018-09-21T09:56:54.645Z,25.10
2018-09-21T10:01:58.130Z,25.00
2018-09-21T10:07:01.501Z,25.20
2018-09-21T10:12:04.944Z,25.30
2018-09-21T10:17:08.711Z,25.20
2018-09-21T10:27:35.681Z,25.80
2018-09-21T10:32:41.585Z,25.80
2018-09-21T10:37:44.961Z,26.00
2018-09-21T10:42:49.534Z,25.80
2018-09-21T10:47:52.969Z,25.60
2018-09-21T10:52:56.444Z,25.70
2018-09-21T10:58:00.618Z,25.70
2018-09-21T11:03:18.466Z,25.80
2018-09-21T11:08:22.040Z,26.10
2018-09-21T11:13:26.578Z,26.30
2018-09-21T11:18:30.430Z,26.10
2018-09-21T11:23:38.719Z,26.10
2018-09-21T11:33:58.323Z,25.70
2018-09-21T11:39:07.208Z,25.60
2018-09-21T11:44:11.625Z,25.50
2018-09-21T11:49:14.987Z,25.60
2018-09-21T11:54:20.331Z,25.60
2018-09-21T11:59:30.723Z,25.60
2018-09-21T12:04:56.199Z,25.70
2018-09-21T12:09:59.818Z,25.80
2018-09-21T12:15:05.812Z,25.80
2018-09-21T12:20:09.144Z,25.80
2018-09-21T12:25:12.433Z,25.70
2018-09-21T12:30:15.757Z,25.50
2018-09-21T12:35:19.177Z,25.20
2018-09-21T12:40:22.528Z,25.10
2018-09-21T12:45:25.841Z,24.70
2018-09-21T12:50:29.257Z,23.40
2018-09-21T12:55:32.501Z,22.40
2018-09-21T13:00:41.946Z,21.90
2018-09-21T13:05:45.242Z,21.70
2018-09-21T13:10:48.477Z,21.70
2018-09-21T13:15:52.349Z,21.80
2018-09-21T13:20:55.635Z,21.60
2018-09-21T13:25:58.920Z,21.60
2018-09-21T13:31:02.286Z,21.30
2018-09-21T13:36:05.565Z,20.70
2018-09-21T13:41:08.911Z,18.90
2018-09-21T13:46:13.074Z,17.20
2018-09-21T13:51:16.440Z,16.70
2018-09-21T13:56:19.748Z,16.50
2018-09-21T14:01:23.073Z,16.30
2018-09-21T14:06:26.314Z,16.30
2018-09-21T14:11:29.607Z,16.10
2018-09-21T14:16:32.894Z,16.10
2018-09-21T14:21:36.184Z,16.00
2018-09-21T14:26:39.439Z,16.00
2018-09-21T14:31:42.956Z,16.10
2018-09-21T14:36:46.340Z,16.00
2018-09-21T14:41:49.909Z,16.10
2018-09-21T14:46:53.185Z,16.10
2018-09-21T14:51:56.512Z,15.90
2018-09-21T14:57:01.896Z,16.10
2018-09-21T15:02:05.568Z,16.10
2018-09-21T15:07:08.976Z,16.00
2018-09-21T15:12:12.272Z,15.90
2018-09-21T15:17:15.714Z,15.70
2018-09-21T15:22:19.730Z,15.80
2018-09-21T15:27:23.815Z,15.60
2018-09-21T15:32:28.621Z,15.60
2018-09-21T15:37:32.795Z,15.40
2018-09-21T15:42:36.148Z,15.50
2018-09-21T15:47:39.460Z,15.40
2018-09-21T15:52:43.034Z,15.60
2018-09-21T15:57:48.668Z,15.90
2018-09-21T16:02:54.582Z,16.20
2018-09-21T16:07:57.935Z,16.20
2018-09-21T16:13:01.491Z,16.10
2018-09-21T16:18:04.813Z,16.20
2018-09-21T16:23:10.281Z,16.50
2018-09-21T16:28:20.124Z,16.70
2018-09-21T16:33:23.749Z,16.70
2018-09-21T16:38:27.201Z,16.90
2018-09-21T16:43:36.324Z,16.80
2018-09-21T16:48:39.863Z,16.80
2018-09-21T16:53:44.795Z,16.50
2018-09-21T16:58:50.517Z,16.50
2018-09-21T17:03:57.452Z,16.50
2018-09-21T17:09:03.106Z,16.10
2018-09-21T17:14:06.716Z,16.10
2018-09-21T17:19:10.938Z,16.10
2018-09-21T17:24:20.865Z,16.00
2018-09-21T17:29:24.346Z,15.90
2018-09-21T17:34:28.447Z,15.60
2018-09-21T17:39:37.040Z,15.10
2018-09-21T17:44:41.352Z,15.10
2018-09-21T17:49:53.243Z,15.20
2018-09-21T17:55:04.557Z,15.10
2018-09-21T18:00:11.343Z,15.00
2018-09-21T18:05:14.862Z,14.90
2018-09-21T18:10:21.626Z,14.70
2018-09-21T18:15:26.431Z,14.70
2018-09-21T18:20:45.051Z,14.70
2018-09-21T18:25:53.748Z,14.70
2018-09-21T18:30:59.216Z,14.60
2018-09-21T18:36:03.827Z,14.70
2018-09-21T18:41:08.222Z,14.50
2018-09-21T18:46:14.113Z,14.40
2018-09-21T18:57:17.368Z,14.30
2018-09-21T19:02:22.922Z,14.20
2018-09-21T19:07:31.703Z,14.20
2018-09-21T19:12:36.474Z,14.00
2018-09-21T19:17:39.832Z,14.10
2018-09-21T19:22:45.234Z,14.10
2018-09-21T19:27:51.117Z,14.00
2018-09-21T19:32:55.310Z,13.90
2018-09-21T19:38:00.785Z,13.80
2018-09-21T19:43:06.034Z,13.80
2018-09-21T19:48:10.531Z,13.70
2018-09-21T19:53:14.817Z,13.80
2018-09-21T19:58:26.052Z,13.80
2018-09-21T20:03:29.408Z,13.60
2018-09-21T20:08:32.769Z,13.60
2018-09-21T20:13:36.065Z,13.50
2018-09-21T20:18:39.320Z,13.50
2018-09-21T20:23:42.699Z,13.50
2018-09-21T20:28:46.092Z,13.40
2018-09-21T20:33:51.525Z,13.30
2018-09-21T20:38:54.837Z,13.30
2018-09-21T20:43:58.433Z,13.40
2018-09-21T20:49:04.374Z,13.50
2018-09-21T20:54:08.257Z,13.50
2018-09-21T20:59:13.049Z,13.60
2018-09-21T21:05:41.255Z,13.60
2018-09-21T21:10:44.966Z,13.50
2018-09-21T21:15:50.060Z,13.60
2018-09-21T21:20:55.442Z,13.50
2018-09-21T21:26:04.812Z,13.60
2018-09-21T21:31:08.626Z,13.50
2018-09-21T21:36:19.201Z,13.60
2018-09-21T21:41:23.124Z,13.60
2018-09-21T21:46:26.444Z,13.60
2018-09-21T21:51:31.975Z,13.70
2018-09-21T21:56:35.295Z,13.60
2018-09-21T22:01:44.898Z,13.40
2018-09-21T22:06:48.410Z,13.50
2018-09-21T22:11:57.168Z,13.50
2018-09-21T22:17:00.622Z,13.30
2018-09-21T22:22:04.102Z,13.30
2018-09-21T22:27:07.790Z,13.30
2018-09-21T22:32:11.193Z,13.10
2018-09-21T22:37:14.612Z,13.10
2018-09-21T22:42:20.915Z,13.00
2018-09-21T22:47:29.043Z,12.90
2018-09-21T22:52:32.513Z,12.80
2018-09-21T22:57:35.942Z,12.90
2018-09-21T23:02:41.806Z,12.90
2018-09-21T23:07:46.665Z,12.80
2018-09-21T23:12:56.659Z,12.90
2018-09-21T23:18:08.129Z,12.90
2018-09-21T23:23:15.550Z,12.90
2018-09-21T23:28:24.338Z,12.80
2018-09-21T23:33:43.007Z,12.80
2018-09-21T23:38:48.968Z,12.80
2018-09-21T23:43:56.528Z,12.80
2018-09-21T23:49:07.123Z,12.90
2018-09-21T23:54:17.953Z,12.80
2018-09-21T23:59:26.543Z,12.60
